createdAt,value
2018-03-04T00:00:59.963Z,84.38
2018-03-04T00:02:05.422Z,84.37
2018-03-04T00:03:11.096Z,84.35
2018-03-04T00:04:16.506Z,84.33
2018-03-04T00:05:21.865Z,84.25
2018-03-04T00:06:27.232Z,84.25
2018-03-04T00:07:32.847Z,84.27
2018-03-04T00:08:38.161Z,84.32
2018-03-04T00:09:43.812Z,84.32
2018-03-04T00:10:49.198Z,84.33
2018-03-04T00:11:54.543Z,84.36
2018-03-04T00:12:59.931Z,84.39
2018-03-04T00:14:05.224Z,84.41
2018-03-04T00:15:10.614Z,84.45
2018-03-04T00:16:16.209Z,84.45
2018-03-04T00:17:21.762Z,84.45
2018-03-04T00:18:27.106Z,84.45
2018-03-04T00:19:32.552Z,84.44
2018-03-04T00:20:37.911Z,84.44
2018-03-04T00:21:43.252Z,84.45
2018-03-04T00:22:49.050Z,84.47
2018-03-04T00:23:54.959Z,84.54
2018-03-04T00:25:00.502Z,84.57
2018-03-04T00:26:05.993Z,84.59
2018-03-04T00:27:11.421Z,84.58
2018-03-04T00:28:16.965Z,84.58
2018-03-04T00:29:22.804Z,84.61
2018-03-04T00:30:28.232Z,84.59
2018-03-04T00:31:33.664Z,84.64
2018-03-04T00:32:39.141Z,84.67
2018-03-04T00:33:44.649Z,84.66
2018-03-04T00:34:50.247Z,84.65
2018-03-04T00:35:56.967Z,84.67
2018-03-04T00:37:02.382Z,84.68
2018-03-04T00:38:08.302Z,84.68
2018-03-04T00:39:13.731Z,84.67
2018-03-04T00:40:19.150Z,84.68
2018-03-04T00:41:24.591Z,84.69
2018-03-04T00:42:30.609Z,84.68
2018-03-04T00:43:36.182Z,84.70
2018-03-04T00:44:41.838Z,84.71
2018-03-04T00:45:47.312Z,84.65
2018-03-04T00:46:52.955Z,84.66
2018-03-04T00:47:58.425Z,84.65
2018-03-04T00:49:04.101Z,84.61
2018-03-04T00:50:09.765Z,84.60
2018-03-04T00:51:15.429Z,84.61
2018-03-04T00:52:20.838Z,84.64
2018-03-04T00:53:26.417Z,84.64
2018-03-04T00:54:31.822Z,84.63
2018-03-04T00:55:37.639Z,84.64
2018-03-04T00:56:43.175Z,84.63
2018-03-04T00:57:48.831Z,84.64
2018-03-04T00:58:54.367Z,84.64
2018-03-04T00:59:59.739Z,84.77
2018-03-04T01:01:05.918Z,84.80
2018-03-04T01:02:11.843Z,84.84
2018-03-04T01:03:17.328Z,84.85
2018-03-04T01:04:22.855Z,84.92
2018-03-04T01:05:28.433Z,84.97
2018-03-04T01:06:34.053Z,84.98
2018-03-04T01:07:39.635Z,85.06
2018-03-04T01:08:45.386Z,85.17
2018-03-04T01:09:51.030Z,85.22
2018-03-04T01:10:56.695Z,85.25
2018-03-04T01:12:02.356Z,85.30
2018-03-04T01:13:08.107Z,85.39
2018-03-04T01:14:13.909Z,85.45
2018-03-04T01:15:19.855Z,85.48
2018-03-04T01:16:25.619Z,85.49
2018-03-04T01:17:31.186Z,85.55
2018-03-04T01:18:36.863Z,85.61
2018-03-04T01:19:42.568Z,85.64
2018-03-04T01:20:48.215Z,85.69
2018-03-04T01:21:54.128Z,85.75
2018-03-04T01:22:59.910Z,85.77
2018-03-04T01:24:05.557Z,85.83
2018-03-04T01:25:11.129Z,85.93
2018-03-04T01:26:16.683Z,85.97
2018-03-04T01:27:22.156Z,86.03
2018-03-04T01:28:28.427Z,86.12
2018-03-04T01:29:34.079Z,86.21
2018-03-04T01:30:39.794Z,86.30
2018-03-04T01:31:45.603Z,86.41
2018-03-04T01:32:51.315Z,86.54
2018-03-04T01:33:56.857Z,86.61
2018-03-04T01:35:02.901Z,86.64
2018-03-04T01:36:08.754Z,86.79
2018-03-04T01:37:14.488Z,86.92
2018-03-04T01:38:20.108Z,87.01
2018-03-04T01:39:25.779Z,87.08
2018-03-04T01:40:31.512Z,87.19
2018-03-04T01:41:37.462Z,87.32
2018-03-04T01:42:43.301Z,87.42
2018-03-04T01:43:49.032Z,87.50
2018-03-04T01:44:54.766Z,87.57
2018-03-04T01:46:00.482Z,87.63
2018-03-04T01:47:06.315Z,87.72
2018-03-04T01:48:12.255Z,87.85
2018-03-04T01:49:18.045Z,88.01
2018-03-04T01:50:23.717Z,88.10
2018-03-04T01:51:33.242Z,88.15
2018-03-04T01:52:38.917Z,88.23
2018-03-04T01:53:44.560Z,88.29
2018-03-04T01:54:50.636Z,88.34
2018-03-04T01:55:56.145Z,88.48
2018-03-04T01:57:02.129Z,88.53
2018-03-04T01:58:07.730Z,88.57
2018-03-04T01:59:13.189Z,88.64
2018-03-04T02:00:18.954Z,88.72
2018-03-04T02:01:25.462Z,88.75
2018-03-04T02:02:31.439Z,88.75
2018-03-04T02:03:37.247Z,88.80
2018-03-04T02:04:42.994Z,88.84
2018-03-04T02:05:48.710Z,88.82
2018-03-04T02:06:54.590Z,88.84
2018-03-04T02:08:00.625Z,88.86
2018-03-04T02:09:06.522Z,88.85
2018-03-04T02:10:12.441Z,88.92
2018-03-04T02:11:19.010Z,88.98
2018-03-04T02:12:25.150Z,89.03
2018-03-04T02:13:30.922Z,89.04
2018-03-04T02:14:37.005Z,89.00
2018-03-04T02:15:42.878Z,89.00
2018-03-04T02:16:48.583Z,89.02
2018-03-04T02:17:54.455Z,89.07
2018-03-04T02:19:00.068Z,89.13
2018-03-04T02:20:05.767Z,89.20
2018-03-04T02:21:12.086Z,89.26
2018-03-04T02:22:18.101Z,89.29
2018-03-04T02:23:24.081Z,89.33
2018-03-04T02:24:29.831Z,89.36
2018-03-04T02:25:35.533Z,89.35
2018-03-04T02:26:41.507Z,89.36
2018-03-04T02:27:47.395Z,89.38
2018-03-04T02:28:53.092Z,89.38
2018-03-04T02:29:58.533Z,89.43
2018-03-04T02:31:04.646Z,89.46
2018-03-04T02:32:10.295Z,89.46
2018-03-04T02:33:16.460Z,89.44
2018-03-04T02:34:22.176Z,89.40
2018-03-04T02:35:27.798Z,89.38
2018-03-04T02:36:33.885Z,89.35
2018-03-04T02:37:39.741Z,89.36
2018-03-04T02:38:45.667Z,89.36
2018-03-04T02:39:51.629Z,89.33
2018-03-04T02:40:57.568Z,89.30
2018-03-04T02:42:03.497Z,89.27
2018-03-04T02:43:09.157Z,89.27
2018-03-04T02:44:15.229Z,89.23
2018-03-04T02:45:20.561Z,89.20
2018-03-04T02:46:26.044Z,89.19
2018-03-04T02:47:32.256Z,89.20
2018-03-04T02:48:38.263Z,89.17
2018-03-04T02:49:43.945Z,89.17
2018-03-04T02:50:49.764Z,89.18
2018-03-04T02:51:55.212Z,89.20
2018-03-04T02:53:00.919Z,89.17
2018-03-04T02:54:07.147Z,89.16
2018-03-04T02:55:12.936Z,89.18
2018-03-04T02:56:18.479Z,89.20
2018-03-04T02:57:24.222Z,89.20
2018-03-04T02:58:30.109Z,89.16
2018-03-04T02:59:35.716Z,89.17
2018-03-04T03:00:41.624Z,89.17
2018-03-04T03:01:46.843Z,89.18
2018-03-04T03:02:52.669Z,89.22
2018-03-04T03:03:58.580Z,89.21
2018-03-04T03:05:04.233Z,89.18
2018-03-04T03:06:10.164Z,89.17
2018-03-04T03:07:16.096Z,89.24
2018-03-04T03:08:21.709Z,89.25
2018-03-04T03:09:26.953Z,89.21
2018-03-04T03:10:32.896Z,89.25
2018-03-04T03:11:38.604Z,89.32
2018-03-04T03:12:44.414Z,89.33
2018-03-04T03:13:50.451Z,89.40
2018-03-04T03:14:56.055Z,89.53
2018-03-04T03:16:01.977Z,89.56
2018-03-04T03:17:09.376Z,89.60
2018-03-04T03:18:14.938Z,89.66
2018-03-04T03:19:20.315Z,89.72
2018-03-04T03:20:25.869Z,89.72
2018-03-04T03:21:31.357Z,89.72
2018-03-04T03:22:36.714Z,89.77
2018-03-04T03:23:42.902Z,89.78
2018-03-04T03:24:48.471Z,89.78
2018-03-04T03:25:53.871Z,89.80
2018-03-04T03:26:59.914Z,89.82
2018-03-04T03:28:05.450Z,89.85
2018-03-04T03:29:11.363Z,89.87
2018-03-04T03:30:17.507Z,89.94
2018-03-04T03:31:23.362Z,90.01
2018-03-04T03:32:29.380Z,90.05
2018-03-04T03:33:34.846Z,90.11
2018-03-04T03:34:40.430Z,90.15
2018-03-04T03:35:46.228Z,90.21
2018-03-04T03:36:51.987Z,90.37
2018-03-04T03:37:58.033Z,90.41
2018-03-04T03:39:03.737Z,90.46
2018-03-04T03:40:09.227Z,90.48
2018-03-04T03:41:14.971Z,90.53
2018-03-04T03:42:20.825Z,90.63
2018-03-04T03:43:26.244Z,90.70
2018-03-04T03:44:31.688Z,90.74
2018-03-04T03:45:37.500Z,90.88
2018-03-04T03:46:42.698Z,91.02
2018-03-04T03:47:48.259Z,91.09
2018-03-04T03:48:54.276Z,91.16
2018-03-04T03:49:59.674Z,91.18
2018-03-04T03:51:04.726Z,91.25
2018-03-04T03:52:10.249Z,91.33
2018-03-04T03:53:15.677Z,91.50
2018-03-04T03:54:21.045Z,91.56
2018-03-04T03:55:26.318Z,91.58
2018-03-04T03:56:31.793Z,91.60
2018-03-04T03:57:36.986Z,91.65
2018-03-04T03:58:43.092Z,91.67
2018-03-04T03:59:48.454Z,91.71
2018-03-04T04:00:54.782Z,91.70
2018-03-04T04:02:00.132Z,91.73
2018-03-04T04:03:05.323Z,91.76
2018-03-04T04:04:11.007Z,91.78
2018-03-04T04:05:16.915Z,91.81
2018-03-04T04:06:22.349Z,91.92
2018-03-04T04:07:27.481Z,91.93
2018-03-04T04:08:32.579Z,91.96
2018-03-04T04:09:37.750Z,92.02
2018-03-04T04:10:42.935Z,92.04
2018-03-04T04:11:48.465Z,92.08
2018-03-04T04:12:53.666Z,92.11
2018-03-04T04:13:58.778Z,92.14
2018-03-04T04:15:03.964Z,92.16
2018-03-04T04:16:08.892Z,92.16
2018-03-04T04:17:13.802Z,92.18
2018-03-04T04:18:19.333Z,92.19
2018-03-04T04:19:24.396Z,92.23
2018-03-04T04:20:29.373Z,92.24
2018-03-04T04:21:34.450Z,92.25
2018-03-04T04:22:39.588Z,92.25
2018-03-04T04:23:44.574Z,92.23
2018-03-04T04:24:50.074Z,92.21
2018-03-04T04:25:55.061Z,92.22
2018-03-04T04:27:00.818Z,92.25
2018-03-04T04:28:05.997Z,92.25
2018-03-04T04:29:11.317Z,92.25
2018-03-04T04:30:16.702Z,92.25
2018-03-04T04:31:21.971Z,92.23
2018-03-04T04:32:27.221Z,92.22
2018-03-04T04:33:32.293Z,92.21
2018-03-04T04:34:38.019Z,92.21
2018-03-04T04:35:43.458Z,92.24
2018-03-04T04:36:49.649Z,92.24
2018-03-04T04:37:55.752Z,92.24
2018-03-04T04:39:01.455Z,92.30
2018-03-04T04:40:06.843Z,92.35
2018-03-04T04:41:12.248Z,92.37
2018-03-04T04:42:17.740Z,92.37
2018-03-04T04:43:23.836Z,92.39
2018-03-04T04:44:29.035Z,92.37
2018-03-04T04:45:34.560Z,92.38
2018-03-04T04:46:40.759Z,92.42
2018-03-04T04:47:45.988Z,92.44
2018-03-04T04:48:51.034Z,92.45
2018-03-04T04:49:56.496Z,92.46
2018-03-04T04:51:01.802Z,92.48
2018-03-04T04:52:07.720Z,92.52
2018-03-04T04:53:12.559Z,92.56
2018-03-04T04:54:17.681Z,92.57
2018-03-04T04:55:22.823Z,92.59
2018-03-04T04:56:29.019Z,92.60
2018-03-04T04:57:33.936Z,92.60
2018-03-04T04:58:38.868Z,92.59
2018-03-04T04:59:43.966Z,92.62
2018-03-04T05:00:48.932Z,92.69
2018-03-04T05:01:54.081Z,92.72
2018-03-04T05:03:00.014Z,92.79
2018-03-04T05:04:04.816Z,92.85
2018-03-04T05:05:09.781Z,92.91
2018-03-04T05:06:14.608Z,93.01
2018-03-04T05:07:19.743Z,93.08
2018-03-04T05:08:25.070Z,93.13
2018-03-04T05:09:30.849Z,93.19
2018-03-04T05:10:36.318Z,93.23
2018-03-04T05:11:41.380Z,93.33
2018-03-04T05:12:46.715Z,93.46
2018-03-04T05:13:51.798Z,93.51
2018-03-04T05:14:57.263Z,93.53
2018-03-04T05:16:02.989Z,93.56
2018-03-04T05:17:08.296Z,93.63
2018-03-04T05:18:13.995Z,93.71
2018-03-04T05:19:19.452Z,93.79
2018-03-04T05:20:24.553Z,93.82
2018-03-04T05:21:29.880Z,93.83
2018-03-04T05:22:35.383Z,93.83
2018-03-04T05:23:40.645Z,93.87
2018-03-04T05:24:45.818Z,93.94
2018-03-04T05:25:51.009Z,94.04
2018-03-04T05:26:57.383Z,94.08
2018-03-04T05:28:02.376Z,94.09
2018-03-04T05:29:07.727Z,94.10
2018-03-04T05:30:12.733Z,94.13
2018-03-04T05:31:18.070Z,94.12
2018-03-04T05:32:22.992Z,94.18
2018-03-04T05:33:28.077Z,94.22
2018-03-04T05:34:33.449Z,94.27
2018-03-04T05:35:39.038Z,94.31
2018-03-04T05:36:44.219Z,94.33
2018-03-04T05:37:49.454Z,94.35
2018-03-04T05:38:54.763Z,94.35
2018-03-04T05:40:00.034Z,94.36
2018-03-04T05:41:05.371Z,94.39
2018-03-04T05:42:10.763Z,94.43
2018-03-04T05:43:15.755Z,94.47
2018-03-04T05:44:20.860Z,94.53
2018-03-04T05:45:26.054Z,94.54
2018-03-04T05:46:31.135Z,94.59
2018-03-04T05:47:36.137Z,94.63
2018-03-04T05:48:41.820Z,94.68
2018-03-04T05:49:47.023Z,94.71
2018-03-04T05:50:52.359Z,94.71
2018-03-04T05:51:57.795Z,94.74
2018-03-04T05:53:03.105Z,94.75
2018-03-04T05:54:08.417Z,94.78
2018-03-04T05:55:14.246Z,94.81
2018-03-04T05:56:19.381Z,94.83
2018-03-04T05:57:25.121Z,94.85
2018-03-04T05:58:30.657Z,94.87
2018-03-04T05:59:35.921Z,94.88
2018-03-04T06:00:41.243Z,94.88
2018-03-04T06:01:46.836Z,94.99
2018-03-04T06:02:53.395Z,95.00
2018-03-04T06:03:58.618Z,95.01
2018-03-04T06:05:04.857Z,95.05
2018-03-04T06:06:11.131Z,95.09
2018-03-04T06:07:16.628Z,95.12
2018-03-04T06:08:22.327Z,95.15
2018-03-04T06:09:28.223Z,95.19
2018-03-04T06:10:34.095Z,95.26
2018-03-04T06:11:39.861Z,95.29
2018-03-04T06:12:45.340Z,95.32
2018-03-04T06:13:51.079Z,95.35
2018-03-04T06:14:57.540Z,95.38
2018-03-04T06:16:03.605Z,95.40
2018-03-04T06:22:35.665Z,95.64
2018-03-04T06:23:41.348Z,95.70
2018-03-04T06:24:46.966Z,95.76
2018-03-04T06:25:52.638Z,95.81
2018-03-04T06:26:58.262Z,95.91
2018-03-04T06:28:04.160Z,95.95
2018-03-04T06:29:10.322Z,95.98
2018-03-04T06:30:15.980Z,96.00
2018-03-04T06:31:21.739Z,96.07
2018-03-04T06:32:27.559Z,96.10
2018-03-04T06:33:33.356Z,96.12
2018-03-04T06:34:39.005Z,96.20
2018-03-04T06:35:45.348Z,96.28
2018-03-04T06:36:51.082Z,96.32
2018-03-04T06:37:56.874Z,96.37
2018-03-04T06:39:02.754Z,96.39
2018-03-04T06:40:09.127Z,96.43
2018-03-04T06:41:15.054Z,96.45
2018-03-04T06:42:21.051Z,96.48
2018-03-04T06:43:26.769Z,96.51
2018-03-04T06:44:32.565Z,96.55
2018-03-04T06:45:38.412Z,96.59
2018-03-04T06:46:44.437Z,96.61
2018-03-04T06:47:50.194Z,96.65
2018-03-04T06:48:56.045Z,96.66
2018-03-04T06:50:01.980Z,96.68
2018-03-04T06:51:08.850Z,96.73
2018-03-04T06:52:14.439Z,96.74
2018-03-04T06:53:20.317Z,96.80
2018-03-04T06:54:27.062Z,96.80
2018-03-04T06:55:33.125Z,96.82
2018-03-04T06:56:38.801Z,96.81
2018-03-04T06:57:44.362Z,96.82
2018-03-04T06:58:50.039Z,96.83
2018-03-04T06:59:55.779Z,96.82
2018-03-04T07:01:01.868Z,96.82
2018-03-04T07:02:08.077Z,96.86
2018-03-04T07:03:13.863Z,96.87
2018-03-04T07:04:20.507Z,96.89
2018-03-04T07:05:26.260Z,96.90
2018-03-04T07:06:32.139Z,96.92
2018-03-04T07:07:37.776Z,96.93
2018-03-04T07:08:43.859Z,96.93
2018-03-04T07:09:49.641Z,96.92
2018-03-04T07:10:55.267Z,96.93
2018-03-04T07:12:00.971Z,96.94
2018-03-04T07:13:06.558Z,96.96
2018-03-04T07:14:12.547Z,97.00
2018-03-04T07:15:18.915Z,97.01
2018-03-04T07:16:24.985Z,97.06
2018-03-04T07:17:30.565Z,97.09
2018-03-04T07:18:36.210Z,97.12
2018-03-04T07:19:42.038Z,97.20
2018-03-04T07:20:48.458Z,97.22
2018-03-04T07:21:53.940Z,97.26
2018-03-04T07:22:59.760Z,97.27
2018-03-04T07:24:05.728Z,97.27
2018-03-04T07:25:11.400Z,97.29
2018-03-04T07:26:17.097Z,97.37
2018-03-04T07:27:23.125Z,97.45
2018-03-04T07:28:28.549Z,97.50
2018-03-04T07:29:34.289Z,97.54
2018-03-04T07:30:39.744Z,97.57
2018-03-04T07:31:45.175Z,97.59
2018-03-04T07:32:50.523Z,97.62
2018-03-04T07:33:56.359Z,97.65
2018-03-04T07:35:01.734Z,97.67
2018-03-04T07:36:07.555Z,97.70
2018-03-04T07:37:13.207Z,97.70
2018-03-04T07:38:18.755Z,97.74
2018-03-04T07:39:24.266Z,97.75
2018-03-04T07:40:30.141Z,97.74
2018-03-04T07:41:35.645Z,97.74
2018-03-04T07:42:41.326Z,97.73
2018-03-04T07:43:46.780Z,97.71
2018-03-04T07:44:52.249Z,97.71
2018-03-04T07:45:57.912Z,97.70
2018-03-04T07:47:03.485Z,97.71
2018-03-04T07:48:08.839Z,97.69
2018-03-04T07:49:15.064Z,97.67
2018-03-04T07:50:20.365Z,97.72
2018-03-04T07:51:25.797Z,97.72
2018-03-04T07:52:31.329Z,97.58
2018-03-04T07:53:36.568Z,97.47
2018-03-04T07:54:42.073Z,97.42
2018-03-04T07:55:47.454Z,97.37
2018-03-04T07:56:52.779Z,97.35
2018-03-04T07:57:58.262Z,97.32
2018-03-04T07:59:03.785Z,97.30
2018-03-04T08:00:09.157Z,97.41
2018-03-04T08:01:14.559Z,97.34
2018-03-04T08:02:20.052Z,97.27
2018-03-04T08:03:25.278Z,97.26
2018-03-04T08:04:30.533Z,97.24
2018-03-04T08:05:36.095Z,97.22
2018-03-04T08:06:41.267Z,97.23
2018-03-04T08:07:46.506Z,97.23
2018-03-04T08:08:51.768Z,97.25
2018-03-04T08:09:57.079Z,97.29
2018-03-04T08:11:02.530Z,97.24
2018-03-04T08:12:08.364Z,97.16
2018-03-04T08:13:13.919Z,97.11
2018-03-04T08:14:19.175Z,97.08
2018-03-04T08:15:24.597Z,97.05
2018-03-04T08:16:30.927Z,97.05
2018-03-04T08:17:36.659Z,97.04
2018-03-04T08:18:42.502Z,97.01
2018-03-04T08:19:48.165Z,96.96
2018-03-04T08:20:53.664Z,96.91
2018-03-04T08:21:58.976Z,96.85
2018-03-04T08:23:04.328Z,96.81
2018-03-04T08:24:09.734Z,96.76
2018-03-04T08:25:20.093Z,96.72
2018-03-04T08:28:35.463Z,96.71
2018-03-04T08:29:40.751Z,96.54
2018-03-04T08:30:46.599Z,96.44
2018-03-04T08:31:51.857Z,96.41
2018-03-04T08:32:57.171Z,96.41
2018-03-04T08:34:02.622Z,96.47
2018-03-04T08:35:08.453Z,96.54
2018-03-04T08:36:14.864Z,96.60
2018-03-04T08:37:20.445Z,96.69
2018-03-04T08:38:25.634Z,96.70
2018-03-04T08:39:30.839Z,96.68
2018-03-04T08:40:35.971Z,96.65
2018-03-04T08:41:41.252Z,96.62
2018-03-04T08:42:46.377Z,96.61
2018-03-04T08:43:51.769Z,96.61
2018-03-04T08:44:57.191Z,96.59
2018-03-04T08:46:02.439Z,96.56
2018-03-04T08:47:08.395Z,96.60
2018-03-04T08:48:13.711Z,96.61
2018-03-04T08:49:19.206Z,96.66
2018-03-04T08:50:24.766Z,96.73
2018-03-04T08:51:30.064Z,96.77
2018-03-04T08:52:35.433Z,96.79
2018-03-04T08:53:41.066Z,96.75
2018-03-04T08:54:46.426Z,96.77
2018-03-04T08:55:51.840Z,96.75
2018-03-04T08:56:57.146Z,96.77
2018-03-04T08:58:02.550Z,96.69
2018-03-04T08:59:10.656Z,96.68
2018-03-04T09:00:15.854Z,96.66
2018-03-04T09:01:21.047Z,96.61
2018-03-04T09:02:26.620Z,96.66
2018-03-04T09:03:31.794Z,96.70
2018-03-04T09:04:36.946Z,96.71
2018-03-04T09:05:42.243Z,96.74
2018-03-04T09:06:47.432Z,96.72
2018-03-04T09:07:53.082Z,96.70
2018-03-04T09:08:58.603Z,96.71
2018-03-04T09:10:03.907Z,96.71
2018-03-04T09:11:09.281Z,96.68
2018-03-04T09:12:15.031Z,96.68
2018-03-04T09:13:20.418Z,96.71
2018-03-04T09:14:25.662Z,96.70
2018-03-04T09:15:32.322Z,96.70
2018-03-04T09:16:37.557Z,96.72
2018-03-04T09:17:42.859Z,96.71
2018-03-04T09:18:48.145Z,96.67
2018-03-04T09:19:53.168Z,96.59
2018-03-04T09:20:58.530Z,96.48
2018-03-04T09:22:04.166Z,96.40
2018-03-04T09:23:09.429Z,96.32
2018-03-04T09:24:14.750Z,96.30
2018-03-04T09:25:19.880Z,96.24
2018-03-04T09:26:25.082Z,96.20
2018-03-04T09:27:30.609Z,96.19
2018-03-04T09:28:35.805Z,96.13
2018-03-04T09:29:42.174Z,96.08
2018-03-04T09:30:47.430Z,96.03
2018-03-04T09:31:52.606Z,95.85
2018-03-04T09:32:57.896Z,95.74
2018-03-04T09:34:03.474Z,95.71
2018-03-04T09:35:08.791Z,95.67
2018-03-04T09:36:14.154Z,95.60
2018-03-04T09:37:19.375Z,95.55
2018-03-04T09:38:24.613Z,95.54
2018-03-04T09:39:29.941Z,95.56
2018-03-04T09:40:35.463Z,95.58
2018-03-04T09:41:40.815Z,95.55
2018-03-04T09:42:46.057Z,95.50
2018-03-04T09:43:51.245Z,95.44
2018-03-04T09:44:56.669Z,95.39
2018-03-04T09:46:01.819Z,95.37
2018-03-04T09:47:07.303Z,95.28
2018-03-04T09:48:12.542Z,95.22
2018-03-04T09:49:17.788Z,95.15
2018-03-04T09:50:23.076Z,95.00
2018-03-04T09:51:28.377Z,94.91
2018-03-04T09:52:33.882Z,94.85
2018-03-04T09:53:39.692Z,94.62
2018-03-04T09:54:45.408Z,94.54
2018-03-04T09:55:51.096Z,94.55
2018-03-04T09:56:56.239Z,94.48
2018-03-04T09:58:02.228Z,94.41
2018-03-04T09:59:07.364Z,94.37
2018-03-04T10:00:12.951Z,94.36
2018-03-04T10:01:18.236Z,94.33
2018-03-04T10:02:23.729Z,94.26
2018-03-04T10:03:29.853Z,94.17
2018-03-04T10:04:34.996Z,94.06
2018-03-04T10:05:40.179Z,93.99
2018-03-04T10:06:45.296Z,93.94
2018-03-04T10:07:50.417Z,93.86
2018-03-04T10:08:55.731Z,93.82
2018-03-04T10:10:01.755Z,93.76
2018-03-04T10:11:06.984Z,93.80
2018-03-04T10:12:12.448Z,93.81
2018-03-04T10:13:17.672Z,93.65
2018-03-04T10:14:23.048Z,93.33
2018-03-04T10:15:28.317Z,93.11
2018-03-04T10:16:33.631Z,92.88
2018-03-04T10:17:39.221Z,92.84
2018-03-04T10:18:44.361Z,92.81
2018-03-04T10:19:49.888Z,92.60
2018-03-04T10:20:55.038Z,92.63
2018-03-04T10:22:00.237Z,92.51
2018-03-04T10:23:05.499Z,92.17
2018-03-04T10:24:10.890Z,91.84
2018-03-04T10:25:16.048Z,91.50
2018-03-04T10:26:21.196Z,91.15
2018-03-04T10:27:26.711Z,91.09
2018-03-04T10:28:32.080Z,90.17
2018-03-04T10:29:37.410Z,89.93
2018-03-04T10:30:43.572Z,90.02
2018-03-04T10:31:48.827Z,89.90
2018-03-04T10:32:53.958Z,89.50
2018-03-04T10:33:59.126Z,89.50
2018-03-04T10:35:04.246Z,89.41
2018-03-04T10:36:09.684Z,88.25
2018-03-04T10:37:15.630Z,87.11
2018-03-04T10:38:20.669Z,86.42
2018-03-04T10:39:25.752Z,85.60
2018-03-04T10:40:30.883Z,85.22
2018-03-04T10:41:36.081Z,84.28
2018-03-04T10:42:41.248Z,83.66
2018-03-04T10:43:47.149Z,82.99
2018-03-04T10:44:52.280Z,82.75
2018-03-04T10:45:58.024Z,81.97
2018-03-04T10:47:03.169Z,81.51
2018-03-04T10:48:08.346Z,81.56
2018-03-04T10:49:13.352Z,81.71
2018-03-04T10:50:18.758Z,80.62
2018-03-04T10:51:23.667Z,80.37
2018-03-04T10:52:28.649Z,79.44
2018-03-04T10:53:33.847Z,79.84
2018-03-04T10:54:38.900Z,79.54
2018-03-04T10:55:43.998Z,80.26
2018-03-04T10:56:49.382Z,80.79
2018-03-04T10:57:54.528Z,80.94
2018-03-04T10:58:59.678Z,81.01
2018-03-04T11:00:04.913Z,80.88
2018-03-04T11:01:11.308Z,80.83
2018-03-04T11:02:18.369Z,81.45
2018-03-04T11:03:23.525Z,80.34
2018-03-04T11:04:28.769Z,80.05
2018-03-04T11:05:33.981Z,79.39
2018-03-04T11:06:39.589Z,78.82
2018-03-04T11:07:44.727Z,77.74
2018-03-04T11:08:50.361Z,77.59
2018-03-04T11:09:55.659Z,77.76
2018-03-04T11:11:01.658Z,77.83
2018-03-04T11:12:06.791Z,77.53
2018-03-04T11:13:12.185Z,77.54
2018-03-04T11:14:17.545Z,77.57
2018-03-04T11:15:23.130Z,77.20
2018-03-04T11:16:28.357Z,76.90
2018-03-04T11:17:33.528Z,77.11
2018-03-04T11:18:38.622Z,76.81
2018-03-04T11:19:43.832Z,76.25
2018-03-04T11:20:49.028Z,76.00
2018-03-04T11:21:54.613Z,76.03
2018-03-04T11:22:59.831Z,76.45
2018-03-04T11:24:05.063Z,77.00
2018-03-04T11:25:10.260Z,76.84
2018-03-04T11:26:15.470Z,77.14
2018-03-04T11:27:20.799Z,77.01
2018-03-04T11:28:26.522Z,77.24
2018-03-04T11:29:32.085Z,76.82
2018-03-04T11:30:38.209Z,76.45
2018-03-04T11:31:43.492Z,76.28
2018-03-04T11:32:48.854Z,76.57
2018-03-04T11:33:54.647Z,76.02
2018-03-04T11:35:01.576Z,75.33
2018-03-04T11:36:06.931Z,75.24
2018-03-04T11:37:12.620Z,74.66
2018-03-04T11:38:18.553Z,74.83
2018-03-04T11:39:24.807Z,74.86
2018-03-04T11:40:31.429Z,74.54
2018-03-04T11:41:37.587Z,73.70
2018-03-04T11:42:44.719Z,73.80
2018-03-04T11:43:53.217Z,73.85
2018-03-04T11:45:00.805Z,73.29
2018-03-04T11:46:08.358Z,73.09
2018-03-04T11:47:15.202Z,73.28
2018-03-04T11:48:21.029Z,73.27
2018-03-04T11:49:26.265Z,73.09
2018-03-04T11:50:32.208Z,73.07
2018-03-04T11:51:37.647Z,72.73
2018-03-04T11:52:43.222Z,72.69
2018-03-04T11:53:48.586Z,72.63
2018-03-04T11:54:54.433Z,72.79
2018-03-04T11:55:59.719Z,72.78
2018-03-04T11:57:05.326Z,73.06
2018-03-04T11:58:10.892Z,73.01
2018-03-04T11:59:16.278Z,73.06
2018-03-04T12:00:22.842Z,72.75
2018-03-04T12:01:28.786Z,72.94
2018-03-04T12:02:34.955Z,73.09
2018-03-04T12:03:40.425Z,72.60
2018-03-04T12:04:45.756Z,72.76
2018-03-04T12:05:52.282Z,72.86
2018-03-04T12:06:58.182Z,73.62
2018-03-04T12:08:03.975Z,73.66
2018-03-04T12:09:09.555Z,73.82
2018-03-04T12:10:14.715Z,74.11
2018-03-04T12:11:20.324Z,74.22
2018-03-04T12:12:25.489Z,74.46
2018-03-04T12:13:30.941Z,74.50
2018-03-04T12:14:36.915Z,74.08
2018-03-04T12:15:42.517Z,74.40
2018-03-04T12:16:49.084Z,74.52
2018-03-04T12:17:54.171Z,74.87
2018-03-04T12:18:59.730Z,75.14
2018-03-04T12:20:05.164Z,75.24
2018-03-04T12:21:10.340Z,75.15
2018-03-04T12:22:15.912Z,74.78
2018-03-04T12:23:21.417Z,75.31
2018-03-04T12:24:26.684Z,75.13
2018-03-04T12:25:32.142Z,74.99
2018-03-04T12:26:38.023Z,74.50
2018-03-04T12:27:43.285Z,74.56
2018-03-04T12:28:48.424Z,74.22
2018-03-04T12:29:54.615Z,73.67
2018-03-04T12:31:00.801Z,73.21
2018-03-04T12:32:06.986Z,73.15
2018-03-04T12:33:12.872Z,73.87
2018-03-04T12:34:18.724Z,74.03
2018-03-04T12:35:26.263Z,73.81
2018-03-04T12:36:34.533Z,74.00
2018-03-04T12:37:40.020Z,74.28
2018-03-04T12:38:46.276Z,74.52
2018-03-04T12:39:53.464Z,74.43
2018-03-04T12:40:58.718Z,75.15
2018-03-04T12:42:03.966Z,75.87
2018-03-04T12:43:10.917Z,75.86
2018-03-04T12:44:16.384Z,74.97
2018-03-04T12:45:21.824Z,74.29
2018-03-04T12:46:27.817Z,74.25
2018-03-04T12:47:33.711Z,73.96
2018-03-04T12:48:39.602Z,73.66
2018-03-04T12:49:44.934Z,73.32
2018-03-04T12:50:50.428Z,73.18
2018-03-04T12:51:56.474Z,74.03
2018-03-04T12:53:01.831Z,74.36
2018-03-04T12:54:07.375Z,74.42
2018-03-04T12:55:13.111Z,74.27
2018-03-04T12:56:18.589Z,74.21
2018-03-04T12:57:24.292Z,74.10
2018-03-04T12:58:31.409Z,73.79
2018-03-04T12:59:38.148Z,74.30
2018-03-04T13:00:44.104Z,74.21
2018-03-04T13:01:49.837Z,74.68
2018-03-04T13:02:55.990Z,75.42
2018-03-04T13:04:02.241Z,75.79
2018-03-04T13:05:09.178Z,75.78
2018-03-04T13:06:14.978Z,75.90
2018-03-04T13:07:20.251Z,76.02
2018-03-04T13:08:25.815Z,75.96
2018-03-04T13:09:31.618Z,76.19
2018-03-04T13:10:37.631Z,76.17
2018-03-04T13:11:43.094Z,76.62
2018-03-04T13:12:48.405Z,76.86
2018-03-04T13:13:54.053Z,77.47
2018-03-04T13:15:00.074Z,77.63
2018-03-04T13:16:05.749Z,77.29
2018-03-04T13:17:11.882Z,76.69
2018-03-04T13:18:17.544Z,76.48
2018-03-04T13:19:22.834Z,76.88
2018-03-04T13:20:28.183Z,76.98
2018-03-04T13:21:33.519Z,76.96
2018-03-04T13:22:38.860Z,76.49
2018-03-04T13:23:44.561Z,75.70
2018-03-04T13:24:50.034Z,75.86
2018-03-04T13:25:55.485Z,76.05
2018-03-04T13:27:01.314Z,75.49
2018-03-04T13:28:06.695Z,75.82
2018-03-04T13:29:12.678Z,75.73
2018-03-04T13:30:18.491Z,75.23
2018-03-04T13:31:24.322Z,75.09
2018-03-04T13:32:30.331Z,74.60
2018-03-04T13:33:36.977Z,74.65
2018-03-04T13:34:42.355Z,74.32
2018-03-04T13:35:47.757Z,74.04
2018-03-04T13:36:53.441Z,73.72
2018-03-04T13:37:58.780Z,73.48
2018-03-04T13:39:04.282Z,72.82
2018-03-04T13:40:10.101Z,72.46
2018-03-04T13:41:15.391Z,71.93
2018-03-04T13:42:21.238Z,71.75
2018-03-04T13:43:26.806Z,71.65
2018-03-04T13:44:32.330Z,71.51
2018-03-04T13:45:37.904Z,71.69
2018-03-04T13:46:43.524Z,71.73
2018-03-04T13:47:49.489Z,71.36
2018-03-04T13:48:56.851Z,71.22
2018-03-04T13:50:02.066Z,71.30
2018-03-04T13:51:07.407Z,71.34
2018-03-04T13:52:12.630Z,71.46
2018-03-04T13:53:18.241Z,71.40
2018-03-04T13:54:23.772Z,71.49
2018-03-04T13:55:29.335Z,71.62
2018-03-04T13:56:34.678Z,71.58
2018-03-04T13:57:40.008Z,71.45
2018-03-04T13:58:45.780Z,71.66
2018-03-04T13:59:51.329Z,71.79
2018-03-04T14:00:57.055Z,72.30
2018-03-04T14:02:03.273Z,72.54
2018-03-04T14:03:08.698Z,72.77
2018-03-04T14:04:14.081Z,72.64
2018-03-04T14:05:21.098Z,72.81
2018-03-04T14:06:29.380Z,73.25
2018-03-04T14:07:36.468Z,73.28
2018-03-04T14:08:43.468Z,73.33
2018-03-04T14:09:49.142Z,73.43
2018-03-04T14:10:54.359Z,73.39
2018-03-04T14:11:59.567Z,73.28
2018-03-04T14:13:05.112Z,73.18